Time;durP1;ratioP1;P1;durP2;ratioP2;P2;SDS_P1;SDS_P2;PMS_P1;PMS_P2;Temp;Humidity;BMP_temperature;BMP_pressure;BME280_temperature;BME280_humidity;BME280_pressure;Samples;Min_cycle;Max_cycle;Signal;HPM_P1;HPM_P2
2022/04/09 04:02:47;;;;;;;2.73;2.43;;;2.30;99.90;;;;;;5922284;23;20376;-78
2022/04/09 04:05:16;;;;;;;2.63;2.40;;;2.30;99.90;;;;;;4877392;29;20580;-76
2022/04/09 04:07:45;;;;;;;2.90;2.70;;;2.30;99.90;;;;;;4881880;29;20242;-76
2022/04/09 04:10:13;;;;;;;3.30;2.77;;;2.40;99.90;;;;;;4882443;29;20470;-79
2022/04/09 04:12:43;;;;;;;3.23;2.93;;;2.20;99.90;;;;;;4881801;29;20214;-76
2022/04/09 04:15:13;;;;;;;3.13;2.83;;;2.30;99.90;;;;;;4881175;29;20490;-77
2022/04/09 04:17:42;;;;;;;2.87;2.63;;;2.30;99.90;;;;;;4881733;29;20967;-77
2022/04/09 04:20:14;;;;;;;3.20;2.90;;;2.30;99.90;;;;;;4880758;29;20266;-78
2022/04/09 04:22:42;;;;;;;3.10;2.80;;;2.30;99.90;;;;;;4881597;29;20446;-78
2022/04/09 04:25:11;;;;;;;3.87;3.07;;;2.20;99.90;;;;;;4881433;29;20541;-79
2022/04/09 04:27:42;;;;;;;3.67;2.80;;;2.30;99.90;;;;;;4890023;29;20471;-74
2022/04/09 04:30:11;;;;;;;2.80;2.60;;;2.30;99.90;;;;;;4884078;29;20466;-77
2022/04/09 04:32:42;;;;;;;2.90;2.70;;;2.20;99.90;;;;;;4880890;29;20467;-79
2022/04/09 04:35:12;;;;;;;3.07;2.77;;;2.10;99.90;;;;;;4880480;29;21056;-77
2022/04/09 04:37:41;;;;;;;2.90;2.60;;;2.10;99.90;;;;;;4879745;29;20534;-79
2022/04/09 04:40:11;;;;;;;2.83;2.63;;;2.10;99.90;;;;;;4881089;29;20487;-73
2022/04/09 04:42:39;;;;;;;3.33;2.93;;;2.10;99.90;;;;;;4888900;29;20519;-78
2022/04/09 04:45:10;;;;;;;3.77;3.13;;;2.10;99.90;;;;;;4874397;29;20876;-79
2022/04/09 04:47:45;;;;;;;4.37;2.80;;;2.10;99.90;;;;;;4880460;29;20786;-79
2022/04/09 04:50:15;;;;;;;3.63;2.70;;;2.10;99.90;;;;;;4888428;29;20459;-76
2022/04/09 04:52:50;;;;;;;2.70;2.50;;;2.20;99.90;;;;;;4891764;29;20510;-75
2022/04/09 04:55:18;;;;;;;2.80;2.60;;;2.20;99.90;;;;;;4886797;29;20530;-76
2022/04/09 04:57:50;;;;;;;3.10;2.80;;;2.30;99.90;;;;;;4885379;29;20473;-78
2022/04/09 05:00:20;;;;;;;3.73;3.17;;;2.20;99.90;;;;;;4884603;29;20482;-75
2022/04/09 05:02:49;;;;;;;5.23;3.37;;;2.20;99.90;;;;;;4888019;29;20493;-73
2022/04/09 05:05:19;;;;;;;3.53;3.23;;;2.30;99.90;;;;;;4886360;29;20266;-79
2022/04/09 05:07:48;;;;;;;4.33;3.70;;;2.30;99.90;;;;;;4886272;29;20218;-74
2022/04/09 05:10:20;;;;;;;4.90;3.90;;;2.30;99.90;;;;;;4884911;29;20937;-73
2022/04/09 05:12:49;;;;;;;4.30;3.90;;;2.40;99.90;;;;;;4876078;29;20463;-79
2022/04/09 05:15:18;;;;;;;4.77;3.53;;;2.30;99.90;;;;;;4880980;29;20498;-79
2022/04/09 05:17:46;;;;;;;4.20;3.80;;;2.30;99.90;;;;;;4880955;29;20565;-79
2022/04/09 05:20:16;;;;;;;4.07;3.67;;;2.40;99.90;;;;;;4880335;29;21021;-80
2022/04/09 05:22:47;;;;;;;6.47;4.20;;;2.40;99.90;;;;;;4880161;29;20250;-78
2022/04/09 05:25:19;;;;;;;7.63;4.77;;;2.40;99.90;;;;;;4881022;29;20450;-79
2022/04/09 05:27:49;;;;;;;6.03;5.20;;;2.60;99.90;;;;;;4881026;29;20459;-79
2022/04/09 05:30:20;;;;;;;5.97;5.00;;;2.50;99.90;;;;;;4880680;29;20462;-78
2022/04/09 05:32:48;;;;;;;6.43;5.70;;;2.50;99.90;;;;;;4880656;29;20443;-79
2022/04/09 05:35:16;;;;;;;7.30;5.43;;;2.50;99.90;;;;;;4880075;29;20585;-79
2022/04/09 05:37:48;;;;;;;7.87;5.93;;;2.50;99.90;;;;;;4861433;29;20574;-77
2022/04/09 05:40:17;;;;;;;6.60;6.00;;;2.50;99.90;;;;;;4860863;29;20460;-75
2022/04/09 05:42:45;;;;;;;7.40;6.60;;;2.50;99.90;;;;;;4861569;29;20547;-79
2022/04/09 05:45:13;;;;;;;8.73;6.67;;;2.50;99.90;;;;;;4860812;29;20748;-79
2022/04/09 05:47:44;;;;;;;7.50;6.77;;;2.50;99.90;;;;;;4865075;29;21013;-78
2022/04/09 05:50:13;;;;;;;7.90;6.63;;;2.60;99.90;;;;;;4879022;29;20314;-78
2022/04/09 05:52:45;;;;;;;8.00;7.07;;;2.60;99.90;;;;;;4879959;29;20475;-79
2022/04/09 05:55:15;;;;;;;8.30;7.37;;;2.50;99.90;;;;;;4877539;29;21076;-79
2022/04/09 05:57:44;;;;;;;9.43;7.90;;;2.50;99.90;;;;;;4861072;29;20436;-79
2022/04/09 06:00:13;;;;;;;9.43;8.53;;;2.50;99.90;;;;;;4868152;29;20204;-78
2022/04/09 06:02:41;;;;;;;10.07;9.03;;;2.50;99.90;;;;;;4879426;29;20535;-77
2022/04/09 06:05:10;;;;;;;9.53;8.47;;;2.50;99.90;;;;;;4879839;29;20357;-78
2022/04/09 06:07:38;;;;;;;10.20;8.73;;;2.50;99.90;;;;;;4871350;29;20547;-77
2022/04/09 06:10:08;;;;;;;9.80;8.80;;;2.50;99.90;;;;;;4866874;29;20469;-77
2022/04/09 06:12:39;;;;;;;10.07;9.03;;;2.50;99.90;;;;;;4873516;29;20507;-77
2022/04/09 06:15:08;;;;;;;11.37;9.97;;;2.50;99.90;;;;;;4875366;29;20542;-77
2022/04/09 06:17:40;;;;;;;10.33;9.33;;;2.50;99.90;;;;;;4878678;29;20526;-78
2022/04/09 06:20:09;;;;;;;10.90;9.80;;;2.50;99.90;;;;;;4877918;29;20841;-78
2022/04/09 06:22:39;;;;;;;11.57;10.33;;;2.60;99.90;;;;;;4878786;29;20968;-78
2022/04/09 06:25:08;;;;;;;11.30;10.13;;;2.50;99.90;;;;;;4879526;29;20447;-78
2022/04/09 06:27:40;;;;;;;15.03;10.50;;;2.60;99.90;;;;;;4878744;29;20975;-74
2022/04/09 06:30:09;;;;;;;11.80;10.17;;;2.50;99.90;;;;;;4878548;29;20218;-77
2022/04/09 06:32:38;;;;;;;10.93;9.40;;;2.60;99.90;;;;;;4882993;29;20449;-75
2022/04/09 06:35:07;;;;;;;11.47;8.57;;;2.70;99.90;;;;;;4866604;29;20524;-74
2022/04/09 06:37:37;;;;;;;9.37;8.37;;;2.70;99.90;;;;;;4875276;29;20527;-77
2022/04/09 06:40:07;;;;;;;9.17;8.27;;;2.80;99.90;;;;;;4879193;29;20458;-78
2022/04/09 06:42:35;;;;;;;8.87;7.60;;;2.90;99.90;;;;;;4878377;29;20542;-78
2022/04/09 06:45:06;;;;;;;9.33;7.97;;;3.00;99.90;;;;;;4882598;29;20471;-74
2022/04/09 06:47:36;;;;;;;10.33;8.40;;;3.10;99.90;;;;;;4888835;29;20202;-74
2022/04/09 06:50:07;;;;;;;8.50;7.23;;;3.10;99.90;;;;;;4885379;29;20222;-79
2022/04/09 06:52:41;;;;;;;8.53;7.63;;;3.20;99.90;;;;;;4874776;29;20245;-78
2022/04/09 06:55:10;;;;;;;9.20;8.30;;;3.20;99.90;;;;;;4875874;29;20660;-77
2022/04/09 06:57:39;;;;;;;9.50;8.10;;;3.20;99.90;;;;;;4878209;29;20253;-78
2022/04/09 07:00:12;;;;;;;9.40;7.80;;;3.20;99.90;;;;;;4878128;29;20242;-80
2022/04/09 07:02:42;;;;;;;8.67;7.77;;;3.20;99.90;;;;;;4865054;29;20711;-78
2022/04/09 07:05:11;;;;;;;10.60;8.60;;;3.20;99.90;;;;;;4861390;29;20424;-73
2022/04/09 07:07:39;;;;;;;8.87;7.97;;;3.10;99.90;;;;;;4860028;29;20294;-75
2022/04/09 07:10:11;;;;;;;8.87;7.97;;;3.10;99.90;;;;;;4863662;29;20220;-79
2022/04/09 07:12:40;;;;;;;8.53;7.73;;;3.10;99.90;;;;;;4879918;29;20721;-77
2022/04/09 07:15:11;;;;;;;9.70;7.80;;;3.10;99.90;;;;;;4879738;29;20240;-80
2022/04/09 07:17:42;;;;;;;10.10;7.80;;;3.20;99.90;;;;;;4878481;29;20187;-77
2022/04/09 07:20:12;;;;;;;8.77;6.90;;;3.30;99.90;;;;;;4876785;29;20557;-78
2022/04/09 07:22:40;;;;;;;8.13;7.33;;;3.20;99.90;;;;;;4867615;29;20677;-78
2022/04/09 07:25:11;;;;;;;9.93;7.90;;;3.20;99.90;;;;;;4874947;29;20471;-75
2022/04/09 07:27:42;;;;;;;8.70;7.80;;;3.20;99.90;;;;;;4877695;29;20652;-76
2022/04/09 07:30:13;;;;;;;9.17;7.40;;;3.20;99.90;;;;;;4858260;29;20675;-79
2022/04/09 07:32:42;;;;;;;8.43;6.87;;;3.30;99.90;;;;;;4867641;29;20207;-78
2022/04/09 07:35:11;;;;;;;7.27;5.23;;;4.20;99.90;;;;;;4862490;29;20214;-79
2022/04/09 07:37:43;;;;;;;7.43;4.60;;;5.40;99.90;;;;;;4863699;29;20257;-78
2022/04/09 07:40:14;;;;;;;6.37;4.00;;;6.50;99.90;;;;;;4863077;29;20242;-77
2022/04/09 07:42:44;;;;;;;6.23;3.90;;;6.90;99.90;;;;;;4880676;29;20267;-79
2022/04/09 07:45:15;;;;;;;5.77;3.67;;;7.20;99.90;;;;;;4881610;29;20286;-79
2022/04/09 07:47:44;;;;;;;7.47;3.93;;;7.20;99.90;;;;;;4862598;29;20292;-79
2022/04/09 07:50:13;;;;;;;6.83;4.13;;;6.90;99.90;;;;;;4862176;29;20287;-78
2022/04/09 07:52:43;;;;;;;5.37;3.93;;;6.30;99.90;;;;;;4876004;29;20794;-79
2022/04/09 07:55:15;;;;;;;6.43;4.10;;;6.30;99.90;;;;;;4862912;29;20203;-78
2022/04/09 07:57:43;;;;;;;5.90;4.03;;;6.80;99.90;;;;;;4863599;29;20235;-79
2022/04/09 08:00:14;;;;;;;6.23;3.77;;;7.80;99.90;;;;;;4863385;29;20298;-80
2022/04/09 08:02:43;;;;;;;8.40;4.03;;;8.00;99.90;;;;;;4874804;29;20244;-74
2022/04/09 08:05:12;;;;;;;5.77;3.97;;;7.90;99.90;;;;;;4872931;29;20285;-77
2022/04/09 08:07:42;;;;;;;5.40;4.40;;;7.40;99.90;;;;;;4894753;29;20229;-80
2022/04/09 08:10:12;;;;;;;7.33;5.53;;;6.80;99.90;;;;;;4897008;29;20205;-74
2022/04/09 08:12:53;;;;;;;7.03;5.00;;;6.30;99.90;;;;;;4896200;29;20207;-77
2022/04/09 08:15:26;;;;;;;5.70;4.40;;;6.10;99.90;;;;;;4883541;29;20214;-79
2022/04/09 08:17:56;;;;;;;5.77;3.50;;;6.70;99.90;;;;;;4883013;29;20207;-76
2022/04/09 08:20:44;;;;;;;6.43;3.70;;;7.70;99.90;;;;;;4881692;29;20218;-75
2022/04/09 08:23:12;;;;;;;6.10;3.60;;;8.00;99.90;;;;;;4880763;29;20242;-78
2022/04/09 08:25:41;;;;;;;6.10;3.30;;;7.90;99.90;;;;;;4880484;29;20230;-79
2022/04/09 08:28:10;;;;;;;5.03;3.00;;;7.60;99.90;;;;;;4880415;29;20218;-79
2022/04/09 08:30:41;;;;;;;5.63;3.10;;;8.20;99.90;;;;;;4874325;29;20302;-75
2022/04/09 08:33:15;;;;;;;4.90;2.60;;;8.90;99.90;;;;;;4863330;29;20199;-76
2022/04/09 08:35:44;;;;;;;5.00;2.60;;;9.60;99.90;;;;;;4867952;29;20221;-77
2022/04/09 08:38:12;;;;;;;7.53;3.17;;;9.10;99.90;;;;;;4887754;29;20747;-77
2022/04/09 08:40:41;;;;;;;4.40;3.40;;;8.60;99.90;;;;;;4883327;29;20263;-75
2022/04/09 08:43:11;;;;;;;6.20;3.70;;;8.00;99.90;;;;;;4862266;29;20642;-77
2022/04/09 08:45:41;;;;;;;4.47;3.20;;;8.20;99.90;;;;;;4862397;29;20246;-78
2022/04/09 08:48:12;;;;;;;4.83;2.80;;;9.80;99.90;;;;;;4863547;29;20303;-75
2022/04/09 08:50:44;;;;;;;5.63;3.27;;;10.90;99.90;;;;;;4865828;29;20244;-75
2022/04/09 08:53:12;;;;;;;4.37;2.80;;;11.20;99.40;;;;;;4872485;29;20241;-76
2022/04/09 08:55:43;;;;;;;4.53;2.60;;;10.80;98.10;;;;;;4881425;29;20210;-77
2022/04/09 08:58:11;;;;;;;4.20;2.83;;;10.60;98.40;;;;;;4883146;29;20297;-78
2022/04/09 09:00:45;;;;;;;3.90;2.87;;;11.30;99.20;;;;;;4880068;29;20634;-75
2022/04/09 09:03:15;;;;;;;5.10;2.60;;;12.40;99.80;;;;;;4879594;29;20237;-76
2022/04/09 09:05:48;;;;;;;5.37;2.63;;;13.30;95.30;;;;;;4879883;29;20210;-75
2022/04/09 09:08:37;;;;;;;3.97;2.70;;;14.00;93.30;;;;;;4880632;29;20236;-76
2022/04/09 09:11:06;;;;;;;6.47;2.80;;;15.00;91.70;;;;;;4879231;29;20300;-76
2022/04/09 09:13:47;;;;;;;4.20;2.30;;;16.20;91.50;;;;;;4872784;29;20576;-78
2022/04/09 09:16:27;;;;;;;4.13;2.50;;;16.80;81.80;;;;;;4878091;29;20298;-74
2022/04/09 09:18:57;;;;;;;4.97;2.23;;;15.30;80.00;;;;;;4879728;29;20213;-77
2022/04/09 09:21:27;;;;;;;4.50;2.60;;;14.20;81.50;;;;;;4879510;29;20242;-76
2022/04/09 09:24:13;;;;;;;3.13;2.30;;;13.70;87.90;;;;;;4879409;29;20218;-76
2022/04/09 09:26:44;;;;;;;4.37;2.40;;;14.10;86.90;;;;;;4868941;29;20233;-73
2022/04/09 09:29:26;;;;;;;5.43;2.70;;;13.00;86.00;;;;;;4879160;29;20248;-78
2022/04/09 09:31:56;;;;;;;3.00;2.10;;;11.80;90.20;;;;;;4879689;29;20274;-78
2022/04/09 09:34:26;;;;;;;4.33;2.40;;;10.80;91.20;;;;;;4878755;29;20229;-77
2022/04/09 09:36:54;;;;;;;3.80;2.20;;;10.00;92.30;;;;;;4878087;29;20254;-78
2022/04/09 09:39:25;;;;;;;3.77;2.87;;;9.90;94.40;;;;;;4873262;29;20334;-79
2022/04/09 09:41:55;;;;;;;5.33;2.47;;;10.30;93.00;;;;;;4879377;29;20310;-75
2022/04/09 09:44:26;;;;;;;5.50;2.63;;;10.70;93.10;;;;;;4889824;29;20214;-76
2022/04/09 09:47:04;;;;;;;3.43;2.20;;;12.00;92.10;;;;;;4879125;29;20194;-76
2022/04/09 09:49:37;;;;;;;4.47;2.53;;;11.70;91.30;;;;;;4877699;29;20293;-77
2022/04/09 09:52:10;;;;;;;2.93;2.37;;;11.00;92.40;;;;;;4860834;29;20225;-78
2022/04/09 09:54:56;;;;;;;3.40;2.80;;;9.80;94.60;;;;;;4860778;29;20200;-76
2022/04/09 09:57:27;;;;;;;4.17;2.70;;;9.30;98.10;;;;;;4877432;29;20779;-80
2022/04/09 09:59:58;;;;;;;5.93;2.90;;;9.30;98.90;;;;;;4878880;29;20241;-79
2022/04/09 10:02:34;;;;;;;4.67;3.03;;;9.00;99.90;;;;;;4878340;29;20213;-77
2022/04/09 10:05:02;;;;;;;5.07;3.30;;;8.50;99.90;;;;;;4867103;29;20673;-77
2022/04/09 10:07:30;;;;;;;4.33;3.53;;;8.10;99.90;;;;;;4860181;29;20832;-78
2022/04/09 10:10:03;;;;;;;6.00;3.77;;;9.00;99.90;;;;;;4860270;29;20237;-77
2022/04/09 10:12:39;;;;;;;10.00;6.47;;;10.00;99.90;;;;;;4863999;29;20875;-77
2022/04/09 10:15:09;;;;;;;9.47;5.70;;;10.20;99.40;;;;;;4878715;29;20218;-76
2022/04/09 10:17:39;;;;;;;9.53;6.50;;;11.00;99.70;;;;;;4889034;29;20234;-77
2022/04/09 10:20:13;;;;;;;5.17;2.80;;;12.00;96.30;;;;;;4881072;29;20265;-75
2022/04/09 10:22:45;;;;;;;5.50;2.37;;;13.80;96.10;;;;;;4878389;29;20245;-77
2022/04/09 10:25:15;;;;;;;4.03;2.43;;;14.30;94.40;;;;;;4872097;29;20206;-76
2022/04/09 10:27:49;;;;;;;3.60;1.77;;;14.90;90.60;;;;;;4860405;29;20202;-76
2022/04/09 10:30:21;;;;;;;3.40;2.00;;;15.40;87.20;;;;;;4875375;29;20218;-76
2022/04/09 10:32:53;;;;;;;3.27;1.73;;;14.40;83.60;;;;;;4878726;29;20588;-74
2022/04/09 10:35:30;;;;;;;5.57;2.10;;;13.80;87.70;;;;;;4877527;29;20241;-76
2022/04/09 10:38:23;;;;;;;3.90;1.90;;;14.30;91.90;;;;;;4878656;29;20321;-79
2022/04/09 10:41:28;;;;;;;3.60;1.90;;;14.90;88.30;;;;;;4878331;29;20348;-75
2022/04/09 10:44:00;;;;;;;3.10;1.50;;;15.40;89.50;;;;;;4877032;29;20238;-78
2022/04/09 10:46:38;;;;;;;4.40;1.83;;;15.10;80.10;;;;;;4879534;29;20282;-76
2022/04/09 10:49:28;;;;;;;2.83;1.60;;;13.90;82.60;;;;;;4880329;29;20210;-77
2022/04/09 10:52:11;;;;;;;2.37;1.60;;;14.30;84.40;;;;;;4882377;29;20269;-76
2022/04/09 10:54:43;;;;;;;3.23;1.70;;;14.10;80.60;;;;;;4882657;29;20195;-78
2022/04/09 10:57:22;;;;;;;2.63;1.60;;;13.60;79.90;;;;;;4878703;29;20245;-77
2022/04/09 11:00:00;;;;;;;2.53;1.40;;;12.60;81.20;;;;;;4870368;29;20202;-73
2022/04/09 11:02:31;;;;;;;3.00;1.73;;;11.70;82.90;;;;;;4879587;29;20301;-76
2022/04/09 11:05:20;;;;;;;5.10;1.40;;;12.10;87.30;;;;;;4868917;29;20326;-77
2022/04/09 11:08:08;;;;;;;4.00;1.90;;;13.00;85.00;;;;;;4879534;29;20225;-74
2022/04/09 11:10:37;;;;;;;3.77;1.67;;;11.90;84.90;;;;;;4882077;29;20301;-74
2022/04/09 11:13:10;;;;;;;2.27;1.60;;;11.00;86.30;;;;;;4877902;29;20272;-76
2022/04/09 11:15:40;;;;;;;5.13;1.77;;;10.10;87.20;;;;;;4879432;29;20220;-78
2022/04/09 11:18:09;;;;;;;4.27;1.87;;;9.10;92.10;;;;;;4875810;29;20282;-77
2022/04/09 11:20:39;;;;;;;4.30;2.30;;;8.40;93.70;;;;;;4874473;29;20242;-80
2022/04/09 11:23:12;;;;;;;3.70;2.17;;;7.90;95.70;;;;;;4873609;29;20231;-79
2022/04/09 11:25:44;;;;;;;3.60;2.30;;;7.60;95.80;;;;;;4873778;29;20321;-78
2022/04/09 11:28:18;;;;;;;4.33;2.23;;;7.60;96.70;;;;;;4881860;29;20238;-76
2022/04/09 11:30:54;;;;;;;4.47;1.93;;;8.20;96.50;;;;;;4882199;29;20198;-76
2022/04/09 11:33:24;;;;;;;5.33;1.87;;;8.80;98.80;;;;;;4880945;29;20227;-80
2022/04/09 11:35:53;;;;;;;4.13;1.93;;;9.10;94.50;;;;;;4863425;29;20290;-76
2022/04/09 11:38:24;;;;;;;2.17;1.60;;;9.50;93.80;;;;;;4874586;29;20529;-78
2022/04/09 11:40:58;;;;;;;3.47;1.80;;;10.20;93.50;;;;;;4882054;29;20575;-81
2022/04/09 11:43:29;;;;;;;2.70;1.87;;;10.60;93.80;;;;;;4881928;29;20212;-76
2022/04/09 11:46:05;;;;;;;5.17;1.90;;;11.10;91.70;;;;;;4882529;29;20235;-74
2022/04/09 11:48:33;;;;;;;5.43;1.90;;;11.10;90.60;;;;;;4881125;29;20222;-75
2022/04/09 11:51:03;;;;;;;3.33;1.80;;;10.30;89.40;;;;;;4874841;29;20306;-75
2022/04/09 11:53:38;;;;;;;5.17;2.30;;;9.70;92.60;;;;;;4864016;29;20278;-74
2022/04/09 11:56:06;;;;;;;5.97;2.57;;;9.90;94.10;;;;;;4863307;29;20289;-77
2022/04/09 11:58:35;;;;;;;6.87;2.83;;;10.20;93.00;;;;;;4863265;29;20600;-76
2022/04/09 12:01:08;;;;;;;5.33;2.20;;;10.50;92.40;;;;;;4870367;29;20218;-78
2022/04/09 12:03:37;;;;;;;3.73;1.83;;;10.70;94.40;;;;;;4881154;29;20222;-75
2022/04/09 12:06:07;;;;;;;4.43;1.90;;;10.90;92.90;;;;;;4881743;29;20214;-75
2022/04/09 12:08:38;;;;;;;4.63;2.10;;;11.00;90.90;;;;;;4868819;29;20207;-74
2022/04/09 12:11:15;;;;;;;5.17;2.00;;;11.10;88.60;;;;;;4863504;29;20283;-76
2022/04/09 12:13:46;;;;;;;5.20;1.80;;;10.90;89.60;;;;;;4870806;29;20412;-77
2022/04/09 12:16:20;;;;;;;3.50;1.80;;;10.70;90.10;;;;;;4866872;29;20230;-74
2022/04/09 12:18:49;;;;;;;4.53;1.70;;;10.20;89.30;;;;;;4876218;29;20754;-76
2022/04/09 12:21:23;;;;;;;3.07;1.70;;;10.00;86.80;;;;;;4877943;29;20214;-77
2022/04/09 12:24:03;;;;;;;6.53;2.00;;;10.30;90.80;;;;;;4879602;29;20602;-74
2022/04/09 12:26:33;;;;;;;4.23;1.70;;;10.70;91.00;;;;;;4879860;29;20266;-76
2022/04/09 12:29:14;;;;;;;4.60;1.83;;;11.00;88.70;;;;;;4875317;29;20290;-78
2022/04/09 12:31:44;;;;;;;5.10;2.07;;;11.00;88.80;;;;;;4880869;29;20220;-76
2022/04/09 12:34:15;;;;;;;3.77;2.00;;;10.40;86.80;;;;;;4880366;29;20214;-75
2022/04/09 12:37:00;;;;;;;4.20;1.73;;;9.90;89.90;;;;;;4881969;29;20298;-75
2022/04/09 12:39:29;;;;;;;2.93;1.57;;;9.60;91.20;;;;;;4880480;29;20305;-77
2022/04/09 12:41:58;;;;;;;4.97;1.97;;;9.90;93.20;;;;;;4884125;29;20226;-76
2022/04/09 12:44:35;;;;;;;3.77;1.80;;;9.80;91.90;;;;;;4882242;29;20744;-74
2022/04/09 12:47:06;;;;;;;4.30;1.57;;;9.80;93.30;;;;;;4881909;29;20257;-73
2022/04/09 12:49:38;;;;;;;6.37;2.03;;;9.90;92.40;;;;;;4883486;29;20282;-76
2022/04/09 12:52:10;;;;;;;4.40;2.10;;;10.10;92.90;;;;;;4878557;29;20215;-74
2022/04/09 12:54:39;;;;;;;3.77;1.77;;;10.40;92.20;;;;;;4876210;29;20219;-75
2022/04/09 12:57:09;;;;;;;5.57;1.90;;;10.40;92.40;;;;;;4870475;29;20261;-74
2022/04/09 12:59:37;;;;;;;6.93;2.17;;;10.60;88.90;;;;;;4862454;29;20317;-75
2022/04/09 13:02:07;;;;;;;3.53;1.77;;;10.20;88.30;;;;;;4862836;29;20257;-78
2022/04/09 13:04:39;;;;;;;6.33;2.10;;;9.60;90.60;;;;;;4881281;29;20635;-76
2022/04/09 13:07:09;;;;;;;4.77;2.10;;;9.30;92.60;;;;;;4881989;29;20235;-75
2022/04/09 13:09:40;;;;;;;5.53;1.90;;;9.00;93.60;;;;;;4882219;29;20248;-76
2022/04/09 13:12:10;;;;;;;5.13;2.07;;;9.40;93.20;;;;;;4882466;29;20226;-74
2022/04/09 13:14:39;;;;;;;7.37;2.10;;;10.00;92.90;;;;;;4882901;29;20230;-76
2022/04/09 13:17:08;;;;;;;4.47;1.67;;;10.20;94.40;;;;;;4882209;29;20685;-75
2022/04/09 13:19:36;;;;;;;3.67;1.80;;;10.20;91.50;;;;;;4881135;29;20294;-72
2022/04/09 13:22:04;;;;;;;4.40;1.70;;;9.90;91.60;;;;;;4881749;29;20218;-73
2022/04/09 13:24:35;;;;;;;2.80;1.63;;;9.90;92.20;;;;;;4879614;29;20826;-73
2022/04/09 13:27:03;;;;;;;6.07;2.10;;;9.40;92.90;;;;;;4880277;29;20218;-76
2022/04/09 13:29:33;;;;;;;5.20;2.10;;;8.90;94.20;;;;;;4884754;29;20214;-73
2022/04/09 13:32:03;;;;;;;2.53;1.50;;;8.50;95.90;;;;;;4884359;29;20210;-75
2022/04/09 13:34:36;;;;;;;5.47;2.00;;;8.60;96.30;;;;;;4892565;29;20218;-75
2022/04/09 13:37:05;;;;;;;4.27;1.73;;;8.90;97.20;;;;;;4884541;29;20205;-76
2022/04/09 13:39:35;;;;;;;4.00;1.87;;;9.30;96.20;;;;;;4880390;29;20298;-76
2022/04/09 13:42:03;;;;;;;5.47;1.90;;;9.70;96.60;;;;;;4888231;29;20210;-76
2022/04/09 13:44:31;;;;;;;6.43;2.20;;;9.80;95.00;;;;;;4887778;29;20198;-76
2022/04/09 13:47:00;;;;;;;4.10;1.90;;;9.80;96.60;;;;;;4897396;29;20207;-78
2022/04/09 13:49:28;;;;;;;4.23;1.90;;;9.70;95.30;;;;;;4894086;29;20238;-75
2022/04/09 13:51:58;;;;;;;5.93;3.10;;;9.60;92.50;;;;;;4883834;29;20695;-76
2022/04/09 13:54:26;;;;;;;4.83;1.90;;;9.40;92.20;;;;;;4883552;29;20203;-74
2022/04/09 13:56:56;;;;;;;6.00;2.60;;;9.10;92.80;;;;;;4882464;29;20231;-74
2022/04/09 13:59:27;;;;;;;4.40;2.13;;;8.90;94.80;;;;;;4881355;29;20310;-76
2022/04/09 14:01:56;;;;;;;4.27;1.90;;;8.60;96.60;;;;;;4881727;29;20199;-75
2022/04/09 14:04:25;;;;;;;4.43;2.20;;;8.40;99.20;;;;;;4882013;29;20310;-74
2022/04/09 14:06:53;;;;;;;4.00;1.87;;;8.40;99.80;;;;;;4882116;29;20227;-75
2022/04/09 14:09:22;;;;;;;4.63;2.30;;;9.00;99.90;;;;;;4879378;29;20250;-75
2022/04/09 14:11:50;;;;;;;2.33;1.70;;;9.30;99.90;;;;;;4862896;29;20205;-76
2022/04/09 14:14:24;;;;;;;2.10;1.40;;;9.40;95.30;;;;;;4888097;29;20622;-75
2022/04/09 14:16:54;;;;;;;4.00;1.80;;;9.80;95.30;;;;;;4884393;29;20209;-75
2022/04/09 14:19:22;;;;;;;3.97;1.80;;;9.80;94.80;;;;;;4881931;29;20627;-77
2022/04/09 14:21:50;;;;;;;3.97;1.80;;;9.70;93.80;;;;;;4866291;29;20263;-76
2022/04/09 14:24:21;;;;;;;5.37;2.10;;;9.60;93.00;;;;;;4864988;29;20251;-74
2022/04/09 14:26:49;;;;;;;3.57;1.73;;;9.90;94.00;;;;;;4866308;29;20246;-74
2022/04/09 14:29:25;;;;;;;4.70;1.80;;;9.90;92.50;;;;;;4872685;29;20265;-76
2022/04/09 14:31:53;;;;;;;3.63;1.50;;;10.00;93.50;;;;;;4880799;29;20247;-75
2022/04/09 14:34:24;;;;;;;2.13;1.47;;;9.90;92.20;;;;;;4882802;29;20214;-76
2022/04/09 14:36:55;;;;;;;4.77;1.73;;;9.90;91.80;;;;;;4883027;29;20576;-74
2022/04/09 14:39:26;;;;;;;5.03;2.00;;;9.60;91.40;;;;;;4886138;29;20244;-73
2022/04/09 14:41:54;;;;;;;3.40;1.50;;;9.60;92.80;;;;;;4879636;29;20210;-76
2022/04/09 14:44:23;;;;;;;4.30;1.63;;;9.50;92.00;;;;;;4880006;29;20653;-74
2022/04/09 14:46:57;;;;;;;4.47;1.90;;;9.30;92.50;;;;;;4881236;29;20301;-74
2022/04/09 14:49:26;;;;;;;3.33;1.80;;;9.50;94.00;;;;;;4882615;29;20221;-75
2022/04/09 14:51:54;;;;;;;5.47;1.80;;;9.60;94.00;;;;;;4881023;29;20256;-76
2022/04/09 14:54:22;;;;;;;3.37;1.70;;;9.60;93.90;;;;;;4884372;29;20207;-77
2022/04/09 14:56:52;;;;;;;3.40;1.80;;;9.80;92.70;;;;;;4882933;29;20217;-76
2022/04/09 14:59:20;;;;;;;4.60;1.80;;;9.60;92.10;;;;;;4888114;29;20263;-77
2022/04/09 15:01:49;;;;;;;4.57;1.70;;;9.80;93.90;;;;;;4885211;29;20287;-78
2022/04/09 15:04:19;;;;;;;5.17;1.70;;;10.00;92.20;;;;;;4866501;29;20630;-76
2022/04/09 15:06:48;;;;;;;4.70;1.80;;;10.00;91.50;;;;;;4871245;29;20249;-78
2022/04/09 15:09:16;;;;;;;4.20;1.73;;;9.80;91.20;;;;;;4874896;29;20384;-77
2022/04/09 15:11:44;;;;;;;4.97;2.03;;;9.60;91.90;;;;;;4871829;29;20202;-76
2022/04/09 15:14:13;;;;;;;6.20;2.40;;;9.40;90.50;;;;;;4874444;29;20275;-75
2022/04/09 15:16:41;;;;;;;3.40;1.87;;;9.40;91.60;;;;;;4866206;29;20204;-77
2022/04/09 15:19:12;;;;;;;3.63;1.53;;;9.40;90.70;;;;;;4882727;29;20213;-77
2022/04/09 15:21:51;;;;;;;4.40;1.77;;;9.50;90.30;;;;;;4889596;29;20206;-78
2022/04/09 15:24:20;;;;;;;5.23;1.77;;;9.30;90.20;;;;;;4883293;29;20557;-78
2022/04/09 15:26:50;;;;;;;5.13;1.70;;;8.90;91.90;;;;;;4884977;29;20240;-78
2022/04/09 15:29:23;;;;;;;4.13;1.97;;;8.60;92.80;;;;;;4892723;29;20238;-78
2022/04/09 15:31:52;;;;;;;3.60;1.50;;;8.60;92.40;;;;;;4891891;29;20230;-78
2022/04/09 15:34:20;;;;;;;4.53;1.70;;;8.70;92.20;;;;;;4887915;29;20597;-76
2022/04/09 15:36:50;;;;;;;2.93;1.50;;;9.00;92.70;;;;;;4880191;29;20207;-75
2022/04/09 15:39:19;;;;;;;5.17;1.70;;;8.90;90.10;;;;;;4888219;29;20233;-77
2022/04/09 15:41:50;;;;;;;1.87;1.23;;;8.80;90.10;;;;;;4888387;29;20237;-76
2022/04/09 15:44:19;;;;;;;2.87;1.50;;;8.60;90.40;;;;;;4891811;29;20217;-76
2022/04/09 15:46:50;;;;;;;5.07;1.57;;;8.50;91.40;;;;;;4897563;29;20226;-75
2022/04/09 15:49:23;;;;;;;2.67;1.60;;;8.50;90.60;;;;;;4908037;29;20193;-77
2022/04/09 15:51:55;;;;;;;3.57;1.80;;;8.40;90.60;;;;;;4907821;29;20841;-76
2022/04/09 15:54:24;;;;;;;3.13;1.50;;;8.30;90.80;;;;;;4906765;29;20656;-75
2022/04/09 15:56:55;;;;;;;4.70;2.20;;;8.20;90.00;;;;;;4886564;29;20225;-76
2022/04/09 15:59:23;;;;;;;4.37;1.90;;;8.00;89.50;;;;;;4885934;29;20225;-77
2022/04/09 16:01:53;;;;;;;6.10;2.10;;;7.80;90.80;;;;;;4888370;29;20549;-75
2022/04/09 16:04:21;;;;;;;3.27;1.77;;;7.90;91.60;;;;;;4889269;29;20230;-76
2022/04/09 16:06:51;;;;;;;7.10;2.20;;;8.00;91.00;;;;;;4891506;29;20222;-78
2022/04/09 16:09:21;;;;;;;4.90;1.90;;;8.10;91.10;;;;;;4892730;29;20218;-76
2022/04/09 16:11:50;;;;;;;4.77;1.77;;;8.10;91.70;;;;;;4893013;29;20210;-76
2022/04/09 16:14:20;;;;;;;4.40;1.53;;;8.20;91.70;;;;;;4907089;29;20234;-76
2022/04/09 16:16:49;;;;;;;3.60;1.47;;;8.10;91.00;;;;;;4873946;29;20251;-78
2022/04/09 16:19:17;;;;;;;4.80;2.00;;;8.20;92.20;;;;;;4884280;29;20214;-78
2022/04/09 16:21:49;;;;;;;3.77;1.50;;;8.10;91.20;;;;;;4884747;29;20306;-79
2022/04/09 16:24:18;;;;;;;5.50;2.00;;;8.10;91.30;;;;;;4870497;29;20224;-77
2022/04/09 16:26:48;;;;;;;6.53;2.10;;;8.00;91.40;;;;;;4888109;29;20237;-77
2022/04/09 16:29:24;;;;;;;3.60;1.77;;;7.90;90.20;;;;;;4888401;29;20213;-78
2022/04/09 16:31:54;;;;;;;3.53;1.80;;;7.80;91.10;;;;;;4887556;29;20242;-77
2022/04/09 16:34:22;;;;;;;7.83;2.03;;;8.10;90.60;;;;;;4889931;29;20202;-76
2022/04/09 16:36:52;;;;;;;6.77;3.10;;;8.00;91.30;;;;;;4887959;29;20214;-76
2022/04/09 16:39:23;;;;;;;5.40;1.90;;;8.00;90.20;;;;;;4888025;29;20214;-78
2022/04/09 16:41:53;;;;;;;4.07;1.87;;;8.00;90.40;;;;;;4883981;29;20234;-76
2022/04/09 16:44:21;;;;;;;4.67;2.03;;;7.90;90.30;;;;;;4901397;29;20228;-77
2022/04/09 16:46:50;;;;;;;4.17;1.63;;;7.90;90.40;;;;;;4892337;29;20230;-78
2022/04/09 16:49:19;;;;;;;4.80;2.13;;;7.70;90.80;;;;;;4892104;29;20699;-78
2022/04/09 16:51:48;;;;;;;8.20;2.60;;;7.60;91.50;;;;;;4888783;29;20203;-77
2022/04/09 16:54:17;;;;;;;6.83;2.77;;;7.50;92.30;;;;;;4872617;29;20277;-78
2022/04/09 16:56:46;;;;;;;6.07;2.77;;;7.30;91.70;;;;;;4870514;29;20275;-75
2022/04/09 16:59:18;;;;;;;7.33;3.97;;;7.10;91.60;;;;;;4870113;29;20243;-75
2022/04/09 17:01:46;;;;;;;8.60;3.40;;;6.90;92.40;;;;;;4891369;29;20242;-76
2022/04/09 17:04:17;;;;;;;6.20;3.07;;;6.80;93.30;;;;;;4897483;29;20309;-74
2022/04/09 17:06:48;;;;;;;8.47;4.10;;;6.70;93.50;;;;;;4892862;29;20214;-76
2022/04/09 17:09:17;;;;;;;14.33;6.97;;;6.60;94.30;;;;;;4891335;29;20214;-80
2022/04/09 17:11:45;;;;;;;12.93;6.80;;;6.60;95.10;;;;;;4896718;29;20210;-77
2022/04/09 17:14:24;;;;;;;10.40;5.27;;;6.50;95.00;;;;;;4896032;29;20242;-76